sensor_id;sensor_type;location;lat;lon;timestamp;P1;durP1;ratioP1;P2;durP2;ratioP2
13250;SDS011;6692;50.710;7.180;2023-04-25T00:01:02;1033.93;;;966.17;;
13250;SDS011;6692;50.710;7.180;2023-04-25T00:03:02;1056.80;;;985.30;;
13250;SDS011;6692;50.710;7.180;2023-04-25T00:05:03;1019.03;;;952.77;;
13250;SDS011;6692;50.710;7.180;2023-04-25T00:07:04;1027.90;;;961.03;;
13250;SDS011;6692;50.710;7.180;2023-04-25T00:09:05;1051.57;;;980.57;;
13250;SDS011;6692;50.710;7.180;2023-04-25T00:11:05;1054.03;;;982.43;;
13250;SDS011;6692;50.710;7.180;2023-04-25T00:13:06;1094.83;;;999.90;;
13250;SDS011;6692;50.710;7.180;2023-04-25T00:15:07;1061.93;;;989.00;;
13250;SDS011;6692;50.710;7.180;2023-04-25T00:17:08;1082.93;;;999.90;;
13250;SDS011;6692;50.710;7.180;2023-04-25T00:19:09;1040.53;;;971.47;;
13250;SDS011;6692;50.710;7.180;2023-04-25T00:21:09;1037.47;;;968.67;;
13250;SDS011;6692;50.710;7.180;2023-04-25T00:23:10;1040.47;;;971.37;;
13250;SDS011;6692;50.710;7.180;2023-04-25T00:25:11;1100.83;;;999.90;;
13250;SDS011;6692;50.710;7.180;2023-04-25T00:27:11;1074.53;;;999.87;;
13250;SDS011;6692;50.710;7.180;2023-04-25T00:29:12;1080.63;;;999.90;;
13250;SDS011;6692;50.710;7.180;2023-04-25T00:31:13;1069.23;;;996.40;;
13250;SDS011;6692;50.710;7.180;2023-04-25T00:33:13;1058.57;;;986.77;;
13250;SDS011;6692;50.710;7.180;2023-04-25T00:35:14;1053.00;;;983.37;;
13250;SDS011;6692;50.710;7.180;2023-04-25T00:37:15;1057.40;;;985.83;;
13250;SDS011;6692;50.710;7.180;2023-04-25T00:39:15;1084.57;;;999.90;;
13250;SDS011;6692;50.710;7.180;2023-04-25T00:41:16;1077.33;;;999.90;;
13250;SDS011;6692;50.710;7.180;2023-04-25T00:43:16;1086.60;;;999.90;;
13250;SDS011;6692;50.710;7.180;2023-04-25T00:45:17;1079.87;;;999.90;;
13250;SDS011;6692;50.710;7.180;2023-04-25T00:47:18;1108.33;;;999.90;;
13250;SDS011;6692;50.710;7.180;2023-04-25T00:49:18;1090.97;;;999.90;;
13250;SDS011;6692;50.710;7.180;2023-04-25T00:51:20;1055.90;;;983.67;;
13250;SDS011;6692;50.710;7.180;2023-04-25T00:53:20;1092.67;;;999.90;;
13250;SDS011;6692;50.710;7.180;2023-04-25T00:55:22;1081.73;;;999.90;;
13250;SDS011;6692;50.710;7.180;2023-04-25T00:57:23;1086.80;;;999.90;;
13250;SDS011;6692;50.710;7.180;2023-04-25T00:59:23;1063.70;;;991.27;;
13250;SDS011;6692;50.710;7.180;2023-04-25T01:01:24;1070.93;;;997.43;;
13250;SDS011;6692;50.710;7.180;2023-04-25T01:03:25;1057.10;;;985.33;;
13250;SDS011;6692;50.710;7.180;2023-04-25T01:05:25;1042.33;;;972.83;;
13250;SDS011;6692;50.710;7.180;2023-04-25T01:07:26;1039.03;;;970.63;;
13250;SDS011;6692;50.710;7.180;2023-04-25T01:09:27;1046.37;;;976.87;;
13250;SDS011;6692;50.710;7.180;2023-04-25T01:11:27;1999.90;;;999.90;;
13250;SDS011;6692;50.710;7.180;2023-04-25T01:13:28;1351.53;;;972.97;;
13250;SDS011;6692;50.710;7.180;2023-04-25T01:15:29;1999.90;;;999.90;;
13250;SDS011;6692;50.710;7.180;2023-04-25T01:17:29;1352.93;;;974.20;;
13250;SDS011;6692;50.710;7.180;2023-04-25T01:19:30;1999.90;;;999.90;;
13250;SDS011;6692;50.710;7.180;2023-04-25T01:21:31;1999.90;;;999.90;;
13250;SDS011;6692;50.710;7.180;2023-04-25T01:23:32;1999.90;;;999.90;;
13250;SDS011;6692;50.710;7.180;2023-04-25T01:25:33;1999.90;;;999.90;;
13250;SDS011;6692;50.710;7.180;2023-04-25T01:27:35;1999.90;;;999.90;;
13250;SDS011;6692;50.710;7.180;2023-04-25T01:29:35;1999.90;;;999.90;;
13250;SDS011;6692;50.710;7.180;2023-04-25T01:31:36;1999.90;;;999.90;;
13250;SDS011;6692;50.710;7.180;2023-04-25T01:33:37;1999.90;;;999.90;;
13250;SDS011;6692;50.710;7.180;2023-04-25T01:35:38;1999.90;;;999.90;;
13250;SDS011;6692;50.710;7.180;2023-04-25T01:37:39;1999.90;;;999.90;;
13250;SDS011;6692;50.710;7.180;2023-04-25T01:39:40;1999.90;;;999.90;;
13250;SDS011;6692;50.710;7.180;2023-04-25T01:41:40;1999.90;;;999.90;;
13250;SDS011;6692;50.710;7.180;2023-04-25T01:43:41;1999.90;;;999.90;;
13250;SDS011;6692;50.710;7.180;2023-04-25T01:45:42;1999.90;;;999.90;;
13250;SDS011;6692;50.710;7.180;2023-04-25T01:47:43;1999.90;;;999.90;;
13250;SDS011;6692;50.710;7.180;2023-04-25T01:49:43;1999.90;;;999.90;;
13250;SDS011;6692;50.710;7.180;2023-04-25T01:51:45;1999.90;;;999.90;;
13250;SDS011;6692;50.710;7.180;2023-04-25T01:53:45;1999.90;;;999.90;;
13250;SDS011;6692;50.710;7.180;2023-04-25T01:55:46;1999.90;;;999.90;;
13250;SDS011;6692;50.710;7.180;2023-04-25T01:57:47;1999.90;;;999.90;;
13250;SDS011;6692;50.710;7.180;2023-04-25T01:59:47;1999.90;;;999.90;;
13250;SDS011;6692;50.710;7.180;2023-04-25T02:01:48;1999.90;;;999.90;;
13250;SDS011;6692;50.710;7.180;2023-04-25T02:03:49;1999.90;;;999.90;;
13250;SDS011;6692;50.710;7.180;2023-04-25T02:05:50;1999.90;;;999.90;;
13250;SDS011;6692;50.710;7.180;2023-04-25T02:07:51;1999.90;;;999.90;;
13250;SDS011;6692;50.710;7.180;2023-04-25T02:09:51;1999.90;;;999.90;;
13250;SDS011;6692;50.710;7.180;2023-04-25T02:11:52;1999.90;;;999.90;;
13250;SDS011;6692;50.710;7.180;2023-04-25T02:13:53;1999.90;;;999.90;;
13250;SDS011;6692;50.710;7.180;2023-04-25T02:15:54;1999.90;;;999.90;;
13250;SDS011;6692;50.710;7.180;2023-04-25T02:17:55;1999.90;;;999.90;;
13250;SDS011;6692;50.710;7.180;2023-04-25T02:19:55;1999.90;;;999.90;;
13250;SDS011;6692;50.710;7.180;2023-04-25T02:21:56;1999.90;;;999.90;;
13250;SDS011;6692;50.710;7.180;2023-04-25T02:23:57;1999.90;;;999.90;;
13250;SDS011;6692;50.710;7.180;2023-04-25T02:25:58;1999.90;;;999.90;;
13250;SDS011;6692;50.710;7.180;2023-04-25T02:27:59;1999.90;;;999.90;;
13250;SDS011;6692;50.710;7.180;2023-04-25T02:29:59;1999.90;;;999.90;;
13250;SDS011;6692;50.710;7.180;2023-04-25T02:32:00;1999.90;;;999.90;;
13250;SDS011;6692;50.710;7.180;2023-04-25T02:34:01;1999.90;;;999.90;;
13250;SDS011;6692;50.710;7.180;2023-04-25T02:36:02;1999.90;;;999.90;;
13250;SDS011;6692;50.710;7.180;2023-04-25T02:38:04;1999.90;;;999.90;;
13250;SDS011;6692;50.710;7.180;2023-04-25T02:40:05;1999.90;;;999.90;;
13250;SDS011;6692;50.710;7.180;2023-04-25T02:42:07;1999.90;;;999.90;;
13250;SDS011;6692;50.710;7.180;2023-04-25T02:44:07;1999.90;;;999.90;;
13250;SDS011;6692;50.710;7.180;2023-04-25T02:46:08;1999.90;;;999.90;;
13250;SDS011;6692;50.710;7.180;2023-04-25T02:48:08;1999.90;;;999.90;;
13250;SDS011;6692;50.710;7.180;2023-04-25T02:50:09;1999.90;;;999.90;;
13250;SDS011;6692;50.710;7.180;2023-04-25T02:52:10;1999.90;;;999.90;;
13250;SDS011;6692;50.710;7.180;2023-04-25T02:54:10;1999.90;;;999.90;;
13250;SDS011;6692;50.710;7.180;2023-04-25T02:56:11;1999.90;;;999.90;;
13250;SDS011;6692;50.710;7.180;2023-04-25T02:58:12;1999.90;;;999.90;;
13250;SDS011;6692;50.710;7.180;2023-04-25T03:00:13;1999.90;;;999.90;;
13250;SDS011;6692;50.710;7.180;2023-04-25T03:02:14;1999.90;;;999.90;;
13250;SDS011;6692;50.710;7.180;2023-04-25T03:04:14;1999.90;;;999.90;;
13250;SDS011;6692;50.710;7.180;2023-04-25T03:06:15;1999.90;;;999.90;;
13250;SDS011;6692;50.710;7.180;2023-04-25T03:08:16;1999.90;;;999.90;;
13250;SDS011;6692;50.710;7.180;2023-04-25T03:10:17;1999.90;;;999.90;;
13250;SDS011;6692;50.710;7.180;2023-04-25T03:12:18;1999.90;;;999.90;;
13250;SDS011;6692;50.710;7.180;2023-04-25T03:14:19;1999.90;;;999.90;;
13250;SDS011;6692;50.710;7.180;2023-04-25T03:16:20;1999.90;;;999.90;;
13250;SDS011;6692;50.710;7.180;2023-04-25T03:18:20;1999.90;;;999.90;;
13250;SDS011;6692;50.710;7.180;2023-04-25T03:20:21;1999.90;;;999.90;;
13250;SDS011;6692;50.710;7.180;2023-04-25T03:22:22;1999.90;;;999.90;;
13250;SDS011;6692;50.710;7.180;2023-04-25T03:24:22;1999.90;;;999.90;;
13250;SDS011;6692;50.710;7.180;2023-04-25T03:26:23;1999.90;;;999.90;;
13250;SDS011;6692;50.710;7.180;2023-04-25T03:28:24;1999.90;;;999.90;;
13250;SDS011;6692;50.710;7.180;2023-04-25T03:30:25;1999.90;;;999.90;;
13250;SDS011;6692;50.710;7.180;2023-04-25T03:32:26;1999.90;;;999.90;;
13250;SDS011;6692;50.710;7.180;2023-04-25T03:34:27;1999.90;;;999.90;;
13250;SDS011;6692;50.710;7.180;2023-04-25T03:36:28;1999.90;;;999.90;;
13250;SDS011;6692;50.710;7.180;2023-04-25T03:38:29;1999.90;;;999.90;;
13250;SDS011;6692;50.710;7.180;2023-04-25T03:40:29;1999.90;;;999.90;;
13250;SDS011;6692;50.710;7.180;2023-04-25T03:42:30;1999.90;;;999.90;;
13250;SDS011;6692;50.710;7.180;2023-04-25T03:44:31;1999.90;;;999.90;;
13250;SDS011;6692;50.710;7.180;2023-04-25T03:46:31;1999.90;;;999.90;;
13250;SDS011;6692;50.710;7.180;2023-04-25T03:48:33;1999.90;;;999.90;;
13250;SDS011;6692;50.710;7.180;2023-04-25T03:50:33;1999.90;;;999.90;;
13250;SDS011;6692;50.710;7.180;2023-04-25T03:52:34;1999.90;;;999.90;;
13250;SDS011;6692;50.710;7.180;2023-04-25T03:54:35;1999.90;;;999.90;;
13250;SDS011;6692;50.710;7.180;2023-04-25T03:56:35;1999.90;;;999.90;;
13250;SDS011;6692;50.710;7.180;2023-04-25T03:58:36;1999.90;;;999.90;;
13250;SDS011;6692;50.710;7.180;2023-04-25T04:00:37;1999.90;;;999.90;;
13250;SDS011;6692;50.710;7.180;2023-04-25T04:02:37;1999.90;;;999.90;;
13250;SDS011;6692;50.710;7.180;2023-04-25T04:04:38;1999.90;;;999.90;;
13250;SDS011;6692;50.710;7.180;2023-04-25T04:06:39;1999.90;;;999.90;;
13250;SDS011;6692;50.710;7.180;2023-04-25T04:08:39;1999.90;;;999.90;;
13250;SDS011;6692;50.710;7.180;2023-04-25T04:10:41;1999.90;;;999.90;;
13250;SDS011;6692;50.710;7.180;2023-04-25T04:12:42;1999.90;;;999.90;;
13250;SDS011;6692;50.710;7.180;2023-04-25T04:14:43;1999.90;;;999.90;;
13250;SDS011;6692;50.710;7.180;2023-04-25T04:16:43;1999.90;;;999.90;;
13250;SDS011;6692;50.710;7.180;2023-04-25T04:18:45;1999.90;;;999.90;;
13250;SDS011;6692;50.710;7.180;2023-04-25T04:20:45;1999.90;;;999.90;;
13250;SDS011;6692;50.710;7.180;2023-04-25T04:22:46;1999.90;;;999.90;;
13250;SDS011;6692;50.710;7.180;2023-04-25T04:24:47;1999.90;;;999.90;;
13250;SDS011;6692;50.710;7.180;2023-04-25T04:26:48;1999.90;;;999.90;;
13250;SDS011;6692;50.710;7.180;2023-04-25T04:28:49;1999.90;;;999.90;;
13250;SDS011;6692;50.710;7.180;2023-04-25T04:30:49;1999.90;;;999.90;;
13250;SDS011;6692;50.710;7.180;2023-04-25T04:32:50;1999.90;;;999.90;;
13250;SDS011;6692;50.710;7.180;2023-04-25T04:34:50;1999.90;;;999.90;;
13250;SDS011;6692;50.710;7.180;2023-04-25T04:36:51;1999.90;;;999.90;;
13250;SDS011;6692;50.710;7.180;2023-04-25T04:38:52;1999.90;;;999.90;;
13250;SDS011;6692;50.710;7.180;2023-04-25T04:40:52;1999.90;;;999.90;;
13250;SDS011;6692;50.710;7.180;2023-04-25T04:42:53;1999.90;;;999.90;;
13250;SDS011;6692;50.710;7.180;2023-04-25T04:44:54;1999.90;;;999.90;;
13250;SDS011;6692;50.710;7.180;2023-04-25T04:46:54;1999.90;;;999.90;;
13250;SDS011;6692;50.710;7.180;2023-04-25T04:48:55;1999.90;;;999.90;;
13250;SDS011;6692;50.710;7.180;2023-04-25T04:50:56;1999.90;;;999.90;;
13250;SDS011;6692;50.710;7.180;2023-04-25T04:52:56;1999.90;;;999.90;;
13250;SDS011;6692;50.710;7.180;2023-04-25T04:54:57;1999.90;;;999.90;;
13250;SDS011;6692;50.710;7.180;2023-04-25T04:56:58;1999.90;;;999.90;;
13250;SDS011;6692;50.710;7.180;2023-04-25T04:58:58;959.50;;;891.97;;
13250;SDS011;6692;50.710;7.180;2023-04-25T05:00:59;1999.90;;;999.90;;
13250;SDS011;6692;50.710;7.180;2023-04-25T05:03:00;1999.90;;;999.90;;
13250;SDS011;6692;50.710;7.180;2023-04-25T05:05:00;1654.33;;;965.23;;
13250;SDS011;6692;50.710;7.180;2023-04-25T05:07:01;1999.90;;;999.90;;
13250;SDS011;6692;50.710;7.180;2023-04-25T05:09:02;1027.43;;;957.37;;
13250;SDS011;6692;50.710;7.180;2023-04-25T05:11:03;1999.90;;;999.90;;
13250;SDS011;6692;50.710;7.180;2023-04-25T05:13:04;1999.90;;;999.90;;
13250;SDS011;6692;50.710;7.180;2023-04-25T05:15:05;1360.97;;;980.60;;
13250;SDS011;6692;50.710;7.180;2023-04-25T05:17:06;1999.90;;;999.90;;
13250;SDS011;6692;50.710;7.180;2023-04-25T05:19:07;1057.53;;;987.07;;
13250;SDS011;6692;50.710;7.180;2023-04-25T05:21:08;1999.90;;;999.90;;
13250;SDS011;6692;50.710;7.180;2023-04-25T05:23:08;1999.90;;;999.90;;
13250;SDS011;6692;50.710;7.180;2023-04-25T05:25:09;993.93;;;925.13;;
13250;SDS011;6692;50.710;7.180;2023-04-25T05:27:10;1999.90;;;999.90;;
13250;SDS011;6692;50.710;7.180;2023-04-25T05:29:10;1999.90;;;999.90;;
13250;SDS011;6692;50.710;7.180;2023-04-25T05:31:12;1999.90;;;999.90;;
13250;SDS011;6692;50.710;7.180;2023-04-25T05:33:12;1050.50;;;980.40;;
13250;SDS011;6692;50.710;7.180;2023-04-25T05:35:13;1041.17;;;971.90;;
13250;SDS011;6692;50.710;7.180;2023-04-25T05:37:14;1030.13;;;962.60;;
13250;SDS011;6692;50.710;7.180;2023-04-25T05:39:15;1014.57;;;947.60;;
13250;SDS011;6692;50.710;7.180;2023-04-25T05:41:15;1024.10;;;956.80;;
13250;SDS011;6692;50.710;7.180;2023-04-25T05:43:16;1023.40;;;955.97;;
13250;SDS011;6692;50.710;7.180;2023-04-25T05:45:17;1034.93;;;966.93;;
13250;SDS011;6692;50.710;7.180;2023-04-25T05:47:17;1999.90;;;999.90;;
13250;SDS011;6692;50.710;7.180;2023-04-25T05:49:18;1052.03;;;982.13;;
13250;SDS011;6692;50.710;7.180;2023-04-25T05:51:19;1033.60;;;964.83;;
13250;SDS011;6692;50.710;7.180;2023-04-25T05:53:20;1032.50;;;965.00;;
13250;SDS011;6692;50.710;7.180;2023-04-25T05:55:21;1041.67;;;972.13;;
13250;SDS011;6692;50.710;7.180;2023-04-25T05:57:22;1045.53;;;976.03;;
13250;SDS011;6692;50.710;7.180;2023-04-25T05:59:23;1358.37;;;979.27;;
13250;SDS011;6692;50.710;7.180;2023-04-25T06:01:24;1026.33;;;958.07;;
13250;SDS011;6692;50.710;7.180;2023-04-25T06:03:24;1027.83;;;960.23;;
13250;SDS011;6692;50.710;7.180;2023-04-25T06:05:25;1033.13;;;965.67;;
13250;SDS011;6692;50.710;7.180;2023-04-25T06:07:26;1030.97;;;962.57;;
13250;SDS011;6692;50.710;7.180;2023-04-25T06:09:26;1049.17;;;979.47;;
13250;SDS011;6692;50.710;7.180;2023-04-25T06:11:27;1031.03;;;963.00;;
13250;SDS011;6692;50.710;7.180;2023-04-25T06:13:29;1037.67;;;969.73;;
13250;SDS011;6692;50.710;7.180;2023-04-25T06:15:29;1023.23;;;956.03;;
13250;SDS011;6692;50.710;7.180;2023-04-25T06:17:30;1018.17;;;952.03;;
13250;SDS011;6692;50.710;7.180;2023-04-25T06:19:31;1018.30;;;952.07;;
13250;SDS011;6692;50.710;7.180;2023-04-25T06:21:31;1025.47;;;957.73;;
13250;SDS011;6692;50.710;7.180;2023-04-25T06:23:32;1021.40;;;954.57;;
13250;SDS011;6692;50.710;7.180;2023-04-25T06:25:33;1034.20;;;966.13;;
13250;SDS011;6692;50.710;7.180;2023-04-25T06:27:33;1024.43;;;956.93;;
13250;SDS011;6692;50.710;7.180;2023-04-25T06:29:34;1046.83;;;978.00;;
13250;SDS011;6692;50.710;7.180;2023-04-25T06:31:35;1037.30;;;968.40;;
13250;SDS011;6692;50.710;7.180;2023-04-25T06:33:35;1044.37;;;975.60;;
13250;SDS011;6692;50.710;7.180;2023-04-25T06:35:37;1040.60;;;969.87;;
13250;SDS011;6692;50.710;7.180;2023-04-25T06:37:38;1051.03;;;979.37;;
13250;SDS011;6692;50.710;7.180;2023-04-25T06:39:39;1069.13;;;996.13;;
13250;SDS011;6692;50.710;7.180;2023-04-25T06:41:40;1058.07;;;986.17;;
13250;SDS011;6692;50.710;7.180;2023-04-25T06:43:41;1060.47;;;989.17;;
13250;SDS011;6692;50.710;7.180;2023-04-25T06:45:41;1043.33;;;973.03;;
13250;SDS011;6692;50.710;7.180;2023-04-25T06:47:43;1043.43;;;974.67;;
13250;SDS011;6692;50.710;7.180;2023-04-25T06:49:44;1037.20;;;968.77;;
13250;SDS011;6692;50.710;7.180;2023-04-25T06:51:44;1035.17;;;967.37;;
13250;SDS011;6692;50.710;7.180;2023-04-25T06:53:45;1038.07;;;969.47;;
13250;SDS011;6692;50.710;7.180;2023-04-25T06:55:46;1027.03;;;959.10;;
13250;SDS011;6692;50.710;7.180;2023-04-25T06:57:47;1027.60;;;960.03;;
13250;SDS011;6692;50.710;7.180;2023-04-25T06:59:48;1031.43;;;963.67;;
13250;SDS011;6692;50.710;7.180;2023-04-25T07:01:48;1032.27;;;964.77;;
13250;SDS011;6692;50.710;7.180;2023-04-25T07:03:49;1021.37;;;954.90;;
13250;SDS011;6692;50.710;7.180;2023-04-25T07:05:50;1038.63;;;968.70;;
13250;SDS011;6692;50.710;7.180;2023-04-25T07:07:50;1066.63;;;993.80;;
13250;SDS011;6692;50.710;7.180;2023-04-25T07:09:51;1134.57;;;999.90;;
13250;SDS011;6692;50.710;7.180;2023-04-25T07:11:51;1134.33;;;999.90;;
13250;SDS011;6692;50.710;7.180;2023-04-25T07:13:52;1141.87;;;999.90;;
13250;SDS011;6692;50.710;7.180;2023-04-25T07:15:54;1147.47;;;999.90;;
13250;SDS011;6692;50.710;7.180;2023-04-25T07:17:54;1139.67;;;999.90;;
13250;SDS011;6692;50.710;7.180;2023-04-25T07:19:55;1140.10;;;999.90;;
13250;SDS011;6692;50.710;7.180;2023-04-25T07:21:55;1141.87;;;999.90;;
13250;SDS011;6692;50.710;7.180;2023-04-25T07:23:57;1146.57;;;999.90;;
13250;SDS011;6692;50.710;7.180;2023-04-25T07:25:58;1132.67;;;999.90;;
13250;SDS011;6692;50.710;7.180;2023-04-25T07:27:59;1120.60;;;999.90;;
13250;SDS011;6692;50.710;7.180;2023-04-25T07:30:00;1122.80;;;999.90;;
13250;SDS011;6692;50.710;7.180;2023-04-25T07:32:00;1129.00;;;999.90;;
13250;SDS011;6692;50.710;7.180;2023-04-25T07:34:01;1015.43;;;950.27;;
13250;SDS011;6692;50.710;7.180;2023-04-25T07:36:02;1097.80;;;999.90;;
13250;SDS011;6692;50.710;7.180;2023-04-25T07:38:02;1069.63;;;996.27;;
13250;SDS011;6692;50.710;7.180;2023-04-25T07:40:03;1043.63;;;974.47;;
13250;SDS011;6692;50.710;7.180;2023-04-25T07:42:06;1003.13;;;938.70;;
13250;SDS011;6692;50.710;7.180;2023-04-25T07:44:07;1011.70;;;946.83;;
13250;SDS011;6692;50.710;7.180;2023-04-25T07:46:07;1000.20;;;936.47;;
13250;SDS011;6692;50.710;7.180;2023-04-25T07:48:09;1044.93;;;974.70;;
13250;SDS011;6692;50.710;7.180;2023-04-25T07:50:09;1026.87;;;958.70;;
13250;SDS011;6692;50.710;7.180;2023-04-25T07:52:10;1043.03;;;972.80;;
13250;SDS011;6692;50.710;7.180;2023-04-25T07:54:13;1011.13;;;945.87;;
13250;SDS011;6692;50.710;7.180;2023-04-25T07:56:12;1031.57;;;963.37;;
13250;SDS011;6692;50.710;7.180;2023-04-25T07:58:13;1021.47;;;954.50;;
13250;SDS011;6692;50.710;7.180;2023-04-25T08:00:14;1020.57;;;953.43;;
13250;SDS011;6692;50.710;7.180;2023-04-25T08:02:15;978.03;;;916.83;;
13250;SDS011;6692;50.710;7.180;2023-04-25T08:04:16;985.00;;;923.10;;
13250;SDS011;6692;50.710;7.180;2023-04-25T08:06:16;994.20;;;930.60;;
13250;SDS011;6692;50.710;7.180;2023-04-25T08:08:17;979.30;;;918.27;;
13250;SDS011;6692;50.710;7.180;2023-04-25T08:10:18;976.87;;;915.63;;
13250;SDS011;6692;50.710;7.180;2023-04-25T08:12:18;996.67;;;933.10;;
13250;SDS011;6692;50.710;7.180;2023-04-25T08:14:20;1000.07;;;935.87;;
13250;SDS011;6692;50.710;7.180;2023-04-25T08:16:20;910.20;;;857.07;;
13250;SDS011;6692;50.710;7.180;2023-04-25T08:18:21;994.33;;;930.80;;
13250;SDS011;6692;50.710;7.180;2023-04-25T08:20:22;946.93;;;889.33;;
13250;SDS011;6692;50.710;7.180;2023-04-25T08:22:23;963.27;;;904.03;;
13250;SDS011;6692;50.710;7.180;2023-04-25T08:24:24;897.80;;;847.20;;
13250;SDS011;6692;50.710;7.180;2023-04-25T08:26:25;981.17;;;919.67;;
13250;SDS011;6692;50.710;7.180;2023-04-25T08:28:25;817.07;;;774.70;;
13250;SDS011;6692;50.710;7.180;2023-04-25T08:30:26;937.90;;;881.17;;
13250;SDS011;6692;50.710;7.180;2023-04-25T08:32:27;824.53;;;782.20;;
13250;SDS011;6692;50.710;7.180;2023-04-25T08:34:28;767.77;;;729.63;;
13250;SDS011;6692;50.710;7.180;2023-04-25T08:36:29;799.63;;;759.17;;
13250;SDS011;6692;50.710;7.180;2023-04-25T08:38:29;778.27;;;739.73;;
13250;SDS011;6692;50.710;7.180;2023-04-25T08:40:30;705.40;;;672.67;;
13250;SDS011;6692;50.710;7.180;2023-04-25T08:42:31;632.00;;;604.00;;
13250;SDS011;6692;50.710;7.180;2023-04-25T08:44:33;654.23;;;625.33;;
13250;SDS011;6692;50.710;7.180;2023-04-25T08:46:33;575.30;;;551.70;;
13250;SDS011;6692;50.710;7.180;2023-04-25T08:48:33;539.80;;;517.67;;
13250;SDS011;6692;50.710;7.180;2023-04-25T08:50:34;572.43;;;548.50;;
13250;SDS011;6692;50.710;7.180;2023-04-25T08:52:36;582.40;;;558.23;;
13250;SDS011;6692;50.710;7.180;2023-04-25T08:54:36;637.40;;;609.53;;
13250;SDS011;6692;50.710;7.180;2023-04-25T08:56:38;699.87;;;667.83;;
13250;SDS011;6692;50.710;7.180;2023-04-25T08:58:38;757.77;;;721.33;;
13250;SDS011;6692;50.710;7.180;2023-04-25T09:00:40;763.43;;;725.77;;
13250;SDS011;6692;50.710;7.180;2023-04-25T09:02:42;629.87;;;602.53;;
13250;SDS011;6692;50.710;7.180;2023-04-25T09:04:43;634.27;;;606.33;;
13250;SDS011;6692;50.710;7.180;2023-04-25T09:06:44;625.20;;;597.73;;
13250;SDS011;6692;50.710;7.180;2023-04-25T09:08:45;671.20;;;640.67;;
13250;SDS011;6692;50.710;7.180;2023-04-25T09:10:45;677.47;;;647.33;;
13250;SDS011;6692;50.710;7.180;2023-04-25T09:13:01;626.70;;;599.67;;
13250;SDS011;6692;50.710;7.180;2023-04-25T09:17:02;687.43;;;656.23;;
13250;SDS011;6692;50.710;7.180;2023-04-25T09:19:03;597.27;;;571.77;;
13250;SDS011;6692;50.710;7.180;2023-04-25T09:21:06;618.10;;;591.27;;
13250;SDS011;6692;50.710;7.180;2023-04-25T09:23:05;690.40;;;658.70;;
13250;SDS011;6692;50.710;7.180;2023-04-25T09:25:08;626.20;;;598.73;;
13250;SDS011;6692;50.710;7.180;2023-04-25T09:27:09;565.30;;;541.77;;
13250;SDS011;6692;50.710;7.180;2023-04-25T09:29:09;620.27;;;593.27;;
13250;SDS011;6692;50.710;7.180;2023-04-25T09:31:11;674.77;;;644.53;;
13250;SDS011;6692;50.710;7.180;2023-04-25T09:33:11;624.43;;;597.27;;
13250;SDS011;6692;50.710;7.180;2023-04-25T09:35:12;647.03;;;618.30;;
13250;SDS011;6692;50.710;7.180;2023-04-25T09:37:16;474.17;;;455.87;;
13250;SDS011;6692;50.710;7.180;2023-04-25T09:39:14;457.67;;;439.90;;
13250;SDS011;6692;50.710;7.180;2023-04-25T09:41:24;454.03;;;436.60;;
13250;SDS011;6692;50.710;7.180;2023-04-25T09:43:18;542.57;;;520.63;;
13250;SDS011;6692;50.710;7.180;2023-04-25T09:45:18;353.20;;;340.57;;
13250;SDS011;6692;50.710;7.180;2023-04-25T09:47:19;389.93;;;375.20;;
13250;SDS011;6692;50.710;7.180;2023-04-25T09:49:21;380.23;;;366.17;;
13250;SDS011;6692;50.710;7.180;2023-04-25T09:51:22;356.70;;;343.47;;
13250;SDS011;6692;50.710;7.180;2023-04-25T09:53:22;446.27;;;429.60;;
13250;SDS011;6692;50.710;7.180;2023-04-25T09:55:23;397.77;;;382.90;;
13250;SDS011;6692;50.710;7.180;2023-04-25T09:57:24;393.67;;;379.17;;
13250;SDS011;6692;50.710;7.180;2023-04-25T09:59:24;304.43;;;293.47;;
13250;SDS011;6692;50.710;7.180;2023-04-25T10:01:25;279.00;;;268.87;;
13250;SDS011;6692;50.710;7.180;2023-04-25T10:03:25;325.50;;;313.97;;
13250;SDS011;6692;50.710;7.180;2023-04-25T10:05:26;334.90;;;322.73;;
13250;SDS011;6692;50.710;7.180;2023-04-25T10:07:29;409.27;;;394.03;;
13250;SDS011;6692;50.710;7.180;2023-04-25T10:09:27;369.73;;;356.33;;
13250;SDS011;6692;50.710;7.180;2023-04-25T10:11:28;397.70;;;382.87;;
13250;SDS011;6692;50.710;7.180;2023-04-25T10:13:29;324.83;;;313.13;;
13250;SDS011;6692;50.710;7.180;2023-04-25T10:15:30;383.10;;;368.87;;
13250;SDS011;6692;50.710;7.180;2023-04-25T10:17:31;374.27;;;360.50;;
13250;SDS011;6692;50.710;7.180;2023-04-25T10:19:32;400.77;;;385.83;;
13250;SDS011;6692;50.710;7.180;2023-04-25T10:21:33;377.83;;;363.70;;
13250;SDS011;6692;50.710;7.180;2023-04-25T10:23:34;361.03;;;347.93;;
13250;SDS011;6692;50.710;7.180;2023-04-25T10:25:36;325.20;;;313.20;;
13250;SDS011;6692;50.710;7.180;2023-04-25T10:27:36;299.13;;;288.43;;
13250;SDS011;6692;50.710;7.180;2023-04-25T10:29:37;310.07;;;298.83;;
13250;SDS011;6692;50.710;7.180;2023-04-25T10:31:45;441.93;;;425.13;;
13250;SDS011;6692;50.710;7.180;2023-04-25T10:33:46;473.70;;;454.97;;
13250;SDS011;6692;50.710;7.180;2023-04-25T10:35:47;473.40;;;455.17;;
13250;SDS011;6692;50.710;7.180;2023-04-25T10:39:58;418.43;;;402.60;;
13250;SDS011;6692;50.710;7.180;2023-04-25T10:41:58;489.83;;;470.37;;
13250;SDS011;6692;50.710;7.180;2023-04-25T10:43:59;509.97;;;489.53;;
13250;SDS011;6692;50.710;7.180;2023-04-25T10:46:01;491.10;;;471.53;;
13250;SDS011;6692;50.710;7.180;2023-04-25T10:48:02;337.17;;;324.87;;
13250;SDS011;6692;50.710;7.180;2023-04-25T10:50:04;298.80;;;287.90;;
13250;SDS011;6692;50.710;7.180;2023-04-25T10:52:12;316.10;;;304.20;;
13250;SDS011;6692;50.710;7.180;2023-04-25T10:54:17;319.83;;;308.20;;
13250;SDS011;6692;50.710;7.180;2023-04-25T10:56:18;226.17;;;218.10;;
13250;SDS011;6692;50.710;7.180;2023-04-25T10:58:21;342.57;;;330.00;;
13250;SDS011;6692;50.710;7.180;2023-04-25T11:00:20;362.93;;;349.87;;
13250;SDS011;6692;50.710;7.180;2023-04-25T11:02:21;295.90;;;285.53;;
13250;SDS011;6692;50.710;7.180;2023-04-25T11:04:22;301.50;;;290.50;;
13250;SDS011;6692;50.710;7.180;2023-04-25T11:06:22;291.33;;;280.93;;
13250;SDS011;6692;50.710;7.180;2023-04-25T11:08:28;413.20;;;397.50;;
13250;SDS011;6692;50.710;7.180;2023-04-25T11:10:25;381.23;;;366.80;;
13250;SDS011;6692;50.710;7.180;2023-04-25T11:12:27;494.07;;;474.27;;
13250;SDS011;6692;50.710;7.180;2023-04-25T11:14:27;386.13;;;371.63;;
13250;SDS011;6692;50.710;7.180;2023-04-25T11:16:28;373.50;;;359.47;;
13250;SDS011;6692;50.710;7.180;2023-04-25T11:18:29;408.07;;;392.63;;
13250;SDS011;6692;50.710;7.180;2023-04-25T11:20:29;416.37;;;400.20;;
13250;SDS011;6692;50.710;7.180;2023-04-25T11:22:30;505.40;;;485.50;;
13250;SDS011;6692;50.710;7.180;2023-04-25T11:24:32;486.70;;;467.30;;
13250;SDS011;6692;50.710;7.180;2023-04-25T11:26:32;471.27;;;452.93;;
13250;SDS011;6692;50.710;7.180;2023-04-25T11:28:33;602.57;;;577.00;;
13250;SDS011;6692;50.710;7.180;2023-04-25T11:30:35;528.43;;;506.70;;
13250;SDS011;6692;50.710;7.180;2023-04-25T11:32:36;539.80;;;517.53;;
13250;SDS011;6692;50.710;7.180;2023-04-25T11:34:36;437.00;;;419.97;;